Terminal Aerodrome Forecast
Issued by NWS

Home | Current Version | Previous Version | Text Only | Print | Product List | Glossary Off
Versions: 1 2 3 4 5 6 7 8 9 10 11 12 13 14 15 16 17 18 19 20 21

097
FTUS43 KABR 201723
TAFPIR
TAF
KPIR 201723Z 2018/2118 33007KT P6SM VCSH OVC045
     FM210300 32005KT P6SM -SN OVC035
     FM210800 34006KT 6SM -SN OVC025
     FM211200 35007KT 3SM -SN OVC015
     FM211500 36007KT 1SM -SN OVC020=

USA.gov is the U.S. government's official web portal to all federal, state and local government web resources and services.